createdAt,value
2022-11-10T00:00:29.869Z,943.04
2022-11-10T00:01:00.714Z,943.04
2022-11-10T00:01:31.618Z,942.84
2022-11-10T00:02:02.799Z,942.84
2022-11-10T00:02:33.670Z,942.63
2022-11-10T00:03:04.831Z,942.63
2022-11-10T00:03:36.792Z,943.04
2022-11-10T00:04:06.914Z,943.04
2022-11-10T00:04:37.673Z,942.73
2022-11-10T00:05:08.835Z,942.94
2022-11-10T00:05:39.819Z,942.94
2022-11-10T00:06:10.686Z,942.84
2022-11-10T00:06:42.033Z,942.84
2022-11-10T00:07:12.766Z,942.73
2022-11-10T00:07:43.794Z,942.73
2022-11-10T00:08:14.779Z,942.73
2022-11-10T00:08:46.796Z,942.73
2022-11-10T00:09:16.749Z,942.84
2022-11-10T00:09:47.859Z,942.84
2022-11-10T00:10:18.642Z,943.04
2022-11-10T00:10:49.797Z,943.04
2022-11-10T00:11:20.567Z,942.73
2022-11-10T00:11:51.814Z,942.73
2022-11-10T00:12:22.741Z,942.94
2022-11-10T00:12:53.849Z,942.94
2022-11-10T00:13:24.802Z,942.73
2022-11-10T00:13:56.489Z,942.73
2022-11-10T00:14:26.722Z,942.73
2022-11-10T00:14:57.793Z,942.73
2022-11-10T00:15:28.941Z,942.84
2022-11-10T00:15:59.658Z,942.84
2022-11-10T00:16:30.782Z,942.94
2022-11-10T00:17:01.909Z,942.94
2022-11-10T00:17:32.774Z,943.04
2022-11-10T00:18:03.718Z,943.04
2022-11-10T00:18:34.797Z,943.11
2022-11-10T00:19:06.715Z,943.11
2022-11-10T00:19:36.880Z,943.11
2022-11-10T00:20:07.697Z,943.11
2022-11-10T00:20:38.814Z,942.94
2022-11-10T00:21:09.860Z,943.11
2022-11-10T00:21:40.718Z,943.11
2022-11-10T00:22:11.947Z,943.21
2022-11-10T00:22:42.846Z,943.21
2022-11-10T00:23:13.853Z,943.21
2022-11-10T00:23:44.740Z,943.21
2022-11-10T00:24:16.678Z,943.04
2022-11-10T00:24:46.765Z,943.04
2022-11-10T00:25:17.670Z,943.04
2022-11-10T00:25:48.610Z,943.04
2022-11-10T00:26:19.831Z,943.11
2022-11-10T00:26:50.541Z,943.11
2022-11-10T00:27:21.741Z,943.11
2022-11-10T00:27:52.513Z,943.11
2022-11-10T00:28:23.727Z,943.11
2022-11-10T00:28:54.954Z,943.11
2022-11-10T00:29:26.931Z,943.04
2022-11-10T00:29:56.641Z,943.04
2022-11-10T00:30:27.843Z,943.11
2022-11-10T00:30:58.768Z,943.11
2022-11-10T00:31:29.791Z,943.21
2022-11-10T00:32:00.936Z,943.21
2022-11-10T00:32:31.847Z,943.04
2022-11-10T00:33:02.749Z,943.04
2022-11-10T00:33:33.794Z,943.11
2022-11-10T00:34:04.942Z,943.11
2022-11-10T00:34:36.817Z,943.31
2022-11-10T00:35:06.926Z,943.31
2022-11-10T00:35:37.960Z,943.11
2022-11-10T00:36:08.626Z,943.11
2022-11-10T00:36:39.660Z,943.11
2022-11-10T00:37:10.882Z,943.21
2022-11-10T00:37:41.835Z,943.21
2022-11-10T00:38:12.829Z,943.04
2022-11-10T00:38:43.880Z,943.04
2022-11-10T00:39:14.750Z,943.41
2022-11-10T00:39:46.767Z,943.41
2022-11-10T00:40:16.829Z,943.11
2022-11-10T00:40:47.835Z,943.11
2022-11-10T00:41:18.959Z,943.31
2022-11-10T00:41:49.760Z,943.31
2022-11-10T00:42:20.547Z,943.21
2022-11-10T00:42:51.906Z,943.21
2022-11-10T00:43:26.528Z,943.21
2022-11-10T00:43:53.601Z,943.21
2022-11-10T00:44:24.869Z,943.31
2022-11-10T00:44:56.886Z,943.31
2022-11-10T00:45:27.139Z,943.31
2022-11-10T00:45:57.796Z,943.31
2022-11-10T00:46:28.782Z,943.21
2022-11-10T00:46:59.814Z,943.21
2022-11-10T00:47:30.889Z,943.41
2022-11-10T00:48:01.850Z,943.41
2022-11-10T00:48:32.579Z,943.21
2022-11-10T00:49:03.850Z,943.21
2022-11-10T00:49:34.764Z,943.51
2022-11-10T00:50:06.859Z,943.51
2022-11-10T00:50:36.850Z,943.41
2022-11-10T00:51:07.867Z,943.41
2022-11-10T00:51:38.826Z,943.11
2022-11-10T00:52:09.904Z,943.31
2022-11-10T00:52:40.754Z,943.31
2022-11-10T00:53:11.525Z,943.41
2022-11-10T00:53:42.667Z,943.41
2022-11-10T00:54:13.514Z,943.21
2022-11-10T00:54:44.577Z,943.21
2022-11-10T00:55:16.831Z,943.62
2022-11-10T00:55:46.754Z,943.62
2022-11-10T00:56:17.730Z,943.41
2022-11-10T00:56:48.677Z,943.41
2022-11-10T00:57:19.852Z,943.51
2022-11-10T00:57:50.606Z,943.51
2022-11-10T00:58:21.888Z,943.41
2022-11-10T00:58:52.793Z,943.41
2022-11-10T00:59:23.783Z,943.41
2022-11-10T00:59:54.816Z,943.41
2022-11-10T01:00:29.353Z,943.62
2022-11-10T01:00:56.855Z,943.62
2022-11-10T01:01:27.832Z,943.41
2022-11-10T01:01:58.841Z,943.41
2022-11-10T01:02:29.655Z,943.51
2022-11-10T01:03:00.891Z,943.51
2022-11-10T01:03:31.869Z,943.51
2022-11-10T01:04:02.817Z,943.51
2022-11-10T01:04:33.759Z,943.41
2022-11-10T01:05:04.727Z,943.41
2022-11-10T01:05:36.477Z,943.62
2022-11-10T01:06:06.891Z,943.62
2022-11-10T01:06:37.870Z,943.51
2022-11-10T01:07:08.771Z,943.31
2022-11-10T01:07:39.793Z,943.31
2022-11-10T01:08:10.754Z,943.72
2022-11-10T01:08:41.828Z,943.72
2022-11-10T01:09:12.837Z,943.51
2022-11-10T01:09:43.795Z,943.51
2022-11-10T01:10:14.765Z,943.51
2022-11-10T01:10:46.654Z,943.51
2022-11-10T01:11:16.871Z,943.51
2022-11-10T01:11:47.669Z,943.51
2022-11-10T01:12:18.851Z,943.72
2022-11-10T01:12:49.801Z,943.72
2022-11-10T01:13:21.109Z,943.51
2022-11-10T01:13:51.906Z,943.51
2022-11-10T01:14:22.739Z,943.62
2022-11-10T01:14:53.624Z,943.62
2022-11-10T01:15:28.159Z,943.62
2022-11-10T01:15:56.622Z,943.62
2022-11-10T01:16:26.523Z,943.62
2022-11-10T01:16:57.873Z,943.62
2022-11-10T01:17:28.810Z,943.41
2022-11-10T01:17:59.881Z,943.41
2022-11-10T01:18:30.793Z,943.62
2022-11-10T01:19:01.754Z,943.62
2022-11-10T01:19:32.735Z,943.62
2022-11-10T01:20:03.758Z,943.62
2022-11-10T01:20:34.743Z,943.51
2022-11-10T01:21:06.748Z,943.51
2022-11-10T01:21:36.791Z,943.72
2022-11-10T01:22:07.830Z,943.72
2022-11-10T01:22:38.892Z,943.72
2022-11-10T01:23:09.910Z,943.72
2022-11-10T01:23:40.813Z,943.72
2022-11-10T01:24:11.759Z,943.72
2022-11-10T01:24:42.922Z,943.72
2022-11-10T01:25:13.821Z,943.51
2022-11-10T01:25:45.080Z,943.51
2022-11-10T01:26:16.797Z,943.31
2022-11-10T01:26:46.804Z,943.31
2022-11-10T01:27:17.871Z,943.62
2022-11-10T01:27:48.812Z,943.62
2022-11-10T01:28:19.563Z,943.62
2022-11-10T01:28:50.680Z,943.62
2022-11-10T01:29:21.964Z,943.62
2022-11-10T01:29:52.963Z,943.62
2022-11-10T01:30:26.497Z,943.51
2022-11-10T01:30:54.891Z,943.51
2022-11-10T01:31:26.626Z,943.72
2022-11-10T01:31:56.796Z,943.72
2022-11-10T01:32:27.951Z,943.62
2022-11-10T01:32:58.803Z,943.62
2022-11-10T01:33:29.715Z,943.72
2022-11-10T01:34:00.590Z,943.72
2022-11-10T01:34:31.910Z,943.72
2022-11-10T01:35:02.890Z,943.72
2022-11-10T01:35:33.662Z,943.72
2022-11-10T01:36:04.851Z,943.72
2022-11-10T01:36:36.756Z,943.72
2022-11-10T01:37:06.823Z,943.72
2022-11-10T01:37:38.051Z,943.82
2022-11-10T01:38:08.839Z,943.72
2022-11-10T01:38:39.876Z,943.72
2022-11-10T01:39:10.772Z,943.82
2022-11-10T01:39:41.695Z,943.82
2022-11-10T01:40:13.221Z,943.72
2022-11-10T01:40:46.431Z,943.72
2022-11-10T01:41:15.273Z,943.92
2022-11-10T01:41:48.050Z,943.92
2022-11-10T01:42:18.827Z,944.02
2022-11-10T01:42:48.195Z,944.02
2022-11-10T01:43:18.960Z,943.82
2022-11-10T01:43:50.519Z,943.82
2022-11-10T01:44:21.187Z,943.72
2022-11-10T01:44:52.640Z,943.72
2022-11-10T01:45:26.247Z,943.82
2022-11-10T01:45:54.183Z,943.82
2022-11-10T01:46:25.140Z,943.92
2022-11-10T01:46:56.818Z,943.92
2022-11-10T01:47:26.753Z,943.72
2022-11-10T01:47:58.291Z,943.72
2022-11-10T01:48:28.933Z,943.92
2022-11-10T01:49:06.986Z,943.92
2022-11-10T01:49:33.076Z,943.82
2022-11-10T01:50:02.747Z,943.82
2022-11-10T01:50:35.802Z,943.92
2022-11-10T01:51:04.166Z,943.92
2022-11-10T01:51:35.093Z,943.92
2022-11-10T01:52:07.047Z,943.92
2022-11-10T01:52:37.160Z,943.82
2022-11-10T01:53:07.863Z,943.82
2022-11-10T01:53:39.248Z,944.12
2022-11-10T01:54:09.732Z,943.92
2022-11-10T01:54:41.121Z,943.92
2022-11-10T01:55:11.971Z,944.22
2022-11-10T01:55:43.797Z,944.22
2022-11-10T01:56:13.866Z,943.82
2022-11-10T01:56:44.953Z,943.82
2022-11-10T01:57:16.798Z,943.92
2022-11-10T01:57:46.821Z,943.92
2022-11-10T01:58:17.786Z,943.92
2022-11-10T01:58:49.175Z,943.92
2022-11-10T01:59:19.833Z,944.02
2022-11-10T01:59:51.031Z,944.02
2022-11-10T02:00:25.156Z,943.92
2022-11-10T02:00:52.813Z,943.92
2022-11-10T02:01:23.877Z,944.02
2022-11-10T02:01:55.301Z,944.02
2022-11-10T02:02:26.956Z,943.82
2022-11-10T02:02:56.813Z,943.82
2022-11-10T02:03:27.915Z,943.92
2022-11-10T02:03:59.246Z,943.92
2022-11-10T02:04:30.045Z,943.92
2022-11-10T02:05:00.971Z,943.92
2022-11-10T02:05:31.989Z,944.02
2022-11-10T02:06:03.056Z,944.02
2022-11-10T02:06:33.997Z,943.92
2022-11-10T02:07:05.117Z,943.92
2022-11-10T02:07:37.174Z,943.92
2022-11-10T02:08:06.884Z,943.92
2022-11-10T02:08:38.004Z,943.92
2022-11-10T02:09:09.139Z,944.12
2022-11-10T02:09:40.411Z,944.12
2022-11-10T02:10:11.178Z,943.82
2022-11-10T02:10:41.902Z,943.82
2022-11-10T02:11:12.963Z,944.02
2022-11-10T02:11:43.985Z,944.02
2022-11-10T02:12:17.886Z,944.12
2022-11-10T02:12:48.142Z,944.12
2022-11-10T02:13:17.006Z,943.92
2022-11-10T02:13:47.821Z,943.92
2022-11-10T02:14:19.075Z,944.02
2022-11-10T02:14:50.028Z,944.02
2022-11-10T02:15:24.300Z,944.02
2022-11-10T02:15:52.566Z,944.02
2022-11-10T02:16:23.035Z,944.22
2022-11-10T02:16:54.252Z,944.22
2022-11-10T02:17:25.568Z,943.92
2022-11-10T02:17:57.472Z,943.92
2022-11-10T02:18:26.907Z,943.92
2022-11-10T02:18:57.827Z,943.92
2022-11-10T02:19:28.943Z,944.02
2022-11-10T02:20:00.142Z,944.02
2022-11-10T02:20:31.307Z,944.02
2022-11-10T02:21:02.272Z,944.02
2022-11-10T02:21:33.218Z,944.12
2022-11-10T02:22:04.275Z,944.12
2022-11-10T02:22:34.876Z,944.02
2022-11-10T02:23:06.913Z,944.02
2022-11-10T02:23:37.156Z,944.02
2022-11-10T02:24:07.827Z,944.02
2022-11-10T02:24:39.056Z,944.12
2022-11-10T02:25:10.222Z,944.22
2022-11-10T02:25:41.062Z,944.22
2022-11-10T02:26:11.947Z,944.12
2022-11-10T02:26:42.882Z,944.12
2022-11-10T02:27:13.968Z,944.22
2022-11-10T02:27:44.964Z,944.22
2022-11-10T02:28:17.159Z,944.22
2022-11-10T02:28:47.051Z,944.22
2022-11-10T02:29:17.871Z,944.12
2022-11-10T02:29:48.785Z,944.12
2022-11-10T02:30:27.334Z,944.12
2022-11-10T02:30:51.044Z,944.12
2022-11-10T02:31:21.893Z,944.12
2022-11-10T02:31:52.796Z,944.12
2022-11-10T02:32:24.033Z,944.12
2022-11-10T02:32:54.895Z,944.12
2022-11-10T02:33:27.013Z,944.22
2022-11-10T02:33:56.990Z,944.22
2022-11-10T02:34:27.958Z,944.22
2022-11-10T02:34:59.653Z,944.22
2022-11-10T02:35:29.867Z,944.12
2022-11-10T02:36:00.710Z,944.12
2022-11-10T02:36:31.917Z,944.12
2022-11-10T02:37:02.872Z,944.12
2022-11-10T02:37:34.062Z,944.02
2022-11-10T02:38:05.423Z,944.02
2022-11-10T02:38:36.978Z,944.12
2022-11-10T02:39:06.921Z,944.12
2022-11-10T02:39:37.859Z,944.22
2022-11-10T02:40:09.291Z,944.12
2022-11-10T02:40:39.684Z,944.12
2022-11-10T02:41:11.069Z,944.22
2022-11-10T02:41:41.917Z,944.22
2022-11-10T02:42:13.119Z,944.22
2022-11-10T02:42:44.319Z,944.22
2022-11-10T02:43:15.359Z,944.12
2022-11-10T02:43:47.053Z,944.12
2022-11-10T02:44:17.010Z,944.22
2022-11-10T02:44:48.206Z,944.22
2022-11-10T02:45:22.160Z,944.22
2022-11-10T02:45:50.039Z,944.22
2022-11-10T02:46:20.844Z,944.22
2022-11-10T02:46:51.835Z,944.22
2022-11-10T02:47:23.362Z,944.33
2022-11-10T02:47:54.146Z,944.33
2022-11-10T02:48:25.220Z,944.22
2022-11-10T02:48:57.055Z,944.22
2022-11-10T02:49:27.025Z,944.22
2022-11-10T02:49:58.189Z,944.22
2022-11-10T02:50:29.216Z,944.33
2022-11-10T02:50:59.871Z,944.33
2022-11-10T02:51:31.115Z,944.43
2022-11-10T02:52:02.175Z,944.43
2022-11-10T02:52:32.846Z,944.33
2022-11-10T02:53:04.361Z,944.33
2022-11-10T02:53:34.973Z,944.43
2022-11-10T02:54:06.612Z,944.43
2022-11-10T02:54:37.312Z,944.43
2022-11-10T02:55:08.317Z,944.43
2022-11-10T02:55:39.245Z,944.43
2022-11-10T02:56:10.159Z,944.53
2022-11-10T02:56:40.839Z,944.53
2022-11-10T02:57:12.357Z,944.33
2022-11-10T02:57:43.172Z,944.33
2022-11-10T02:58:14.118Z,944.33
2022-11-10T02:58:45.193Z,944.33
2022-11-10T02:59:16.984Z,944.43
2022-11-10T02:59:47.122Z,944.43
2022-11-10T03:00:20.836Z,944.43
2022-11-10T03:00:49.051Z,944.43
2022-11-10T03:01:19.934Z,944.53
2022-11-10T03:01:50.940Z,944.53
2022-11-10T03:02:22.122Z,944.63
2022-11-10T03:02:53.089Z,944.63
2022-11-10T03:03:24.373Z,944.43
2022-11-10T03:03:55.123Z,944.43
2022-11-10T03:04:27.289Z,944.53
2022-11-10T03:04:56.996Z,944.53
2022-11-10T03:05:28.010Z,944.73
2022-11-10T03:05:59.193Z,944.73
2022-11-10T03:06:30.194Z,944.63
2022-11-10T03:07:01.314Z,944.63
2022-11-10T03:07:32.071Z,944.53
2022-11-10T03:08:03.164Z,944.53
2022-11-10T03:08:34.163Z,944.83
2022-11-10T03:09:05.027Z,944.83
2022-11-10T03:09:37.275Z,944.53
2022-11-10T03:10:07.330Z,944.53
2022-11-10T03:10:38.036Z,944.63
2022-11-10T03:11:08.881Z,944.94
2022-11-10T03:11:40.845Z,944.94
2022-11-10T03:12:10.831Z,944.73
2022-11-10T03:12:42.155Z,944.73
2022-11-10T03:13:13.431Z,944.73
2022-11-10T03:14:00.354Z,944.73
2022-11-10T03:14:14.888Z,944.83
2022-11-10T03:14:46.642Z,944.83
2022-11-10T03:15:20.041Z,944.94
2022-11-10T03:15:48.217Z,944.94
2022-11-10T03:16:19.084Z,944.73
2022-11-10T03:16:50.048Z,944.73
2022-11-10T03:17:21.007Z,944.83
2022-11-10T03:17:51.914Z,944.83
2022-11-10T03:18:23.256Z,944.83
2022-11-10T03:18:54.023Z,944.83
2022-11-10T03:19:24.866Z,944.63
2022-11-10T03:19:57.028Z,944.63
2022-11-10T03:20:27.096Z,944.94
2022-11-10T03:20:58.216Z,944.94
2022-11-10T03:21:29.100Z,944.83
2022-11-10T03:22:00.270Z,944.83
2022-11-10T03:22:30.872Z,944.83
2022-11-10T03:23:02.568Z,944.83
2022-11-10T03:23:33.115Z,944.94
2022-11-10T03:24:04.243Z,944.94
2022-11-10T03:24:35.474Z,945.04
2022-11-10T03:25:07.030Z,945.04
2022-11-10T03:25:37.139Z,944.83
2022-11-10T03:26:07.953Z,944.83
2022-11-10T03:26:39.331Z,945.04
2022-11-10T03:27:10.027Z,944.94
2022-11-10T03:27:41.395Z,944.94
2022-11-10T03:28:12.336Z,944.94
2022-11-10T03:28:43.093Z,944.94
2022-11-10T03:29:14.294Z,945.04
2022-11-10T03:29:45.434Z,945.04
2022-11-10T03:30:20.095Z,944.83
2022-11-10T03:30:47.048Z,944.83
2022-11-10T03:31:18.138Z,944.94
2022-11-10T03:31:49.183Z,944.94
2022-11-10T03:32:19.859Z,944.83
2022-11-10T03:32:50.982Z,944.83
2022-11-10T03:33:22.241Z,944.83
2022-11-10T03:33:52.957Z,944.83
2022-11-10T03:34:27.044Z,944.94
2022-11-10T03:34:55.404Z,944.94
2022-11-10T03:35:27.734Z,945.14
2022-11-10T03:35:57.036Z,945.14
2022-11-10T03:36:28.252Z,944.94
2022-11-10T03:36:59.582Z,944.94
2022-11-10T03:37:29.823Z,944.83
2022-11-10T03:38:00.862Z,944.83
2022-11-10T03:38:31.914Z,945.14
2022-11-10T03:39:02.780Z,945.14
2022-11-10T03:39:33.843Z,944.83
2022-11-10T03:40:04.578Z,944.83
2022-11-10T03:40:50.803Z,944.94
2022-11-10T03:41:37.778Z,945.04
2022-11-10T03:42:08.853Z,944.94
2022-11-10T03:42:40.041Z,944.94
2022-11-10T03:43:10.888Z,945.14
2022-11-10T03:43:41.693Z,945.14
2022-11-10T03:44:12.869Z,945.04
2022-11-10T03:44:43.786Z,945.04
2022-11-10T03:45:17.693Z,944.94
2022-11-10T03:45:46.840Z,944.94
2022-11-10T03:46:16.749Z,945.04
2022-11-10T03:46:51.574Z,945.04
2022-11-10T03:47:18.832Z,945.14
2022-11-10T03:47:49.840Z,945.14
2022-11-10T03:48:20.868Z,945.31
2022-11-10T03:48:53.731Z,945.31
2022-11-10T03:49:22.901Z,945.21
2022-11-10T03:49:53.985Z,945.21
2022-11-10T03:50:25.016Z,945.04
2022-11-10T03:50:56.671Z,945.04
2022-11-10T03:51:26.793Z,945.14
2022-11-10T03:51:57.864Z,945.14
2022-11-10T03:52:28.907Z,945.14
2022-11-10T03:52:59.760Z,945.14
2022-11-10T03:53:30.746Z,945.21
2022-11-10T03:54:01.811Z,945.21
2022-11-10T03:54:32.864Z,945.31
2022-11-10T03:55:03.896Z,945.31
2022-11-10T03:55:34.739Z,944.73
2022-11-10T03:56:06.764Z,944.73
2022-11-10T03:56:36.756Z,945.14
2022-11-10T03:57:07.836Z,945.14
2022-11-10T03:57:38.787Z,945.21
2022-11-10T03:58:09.871Z,945.14
2022-11-10T03:58:40.902Z,945.14
2022-11-10T03:59:11.980Z,945.14
2022-11-10T03:59:42.881Z,945.14
2022-11-10T04:00:16.556Z,945.31
2022-11-10T04:00:44.938Z,945.31
2022-11-10T04:01:16.839Z,945.31
2022-11-10T04:01:46.931Z,945.31
2022-11-10T04:02:17.878Z,945.21
2022-11-10T04:02:48.913Z,945.21
2022-11-10T04:03:20.228Z,945.21
2022-11-10T04:03:51.692Z,945.21
2022-11-10T04:04:22.046Z,945.41
2022-11-10T04:04:52.791Z,945.41
2022-11-10T04:05:23.885Z,945.21
2022-11-10T04:05:54.952Z,945.21
2022-11-10T04:06:26.773Z,945.31
2022-11-10T04:06:56.962Z,945.31
2022-11-10T04:07:27.917Z,945.31
2022-11-10T04:07:58.949Z,945.31
2022-11-10T04:08:30.027Z,945.41
2022-11-10T04:09:00.769Z,945.41
2022-11-10T04:09:31.638Z,945.41
2022-11-10T04:10:02.756Z,945.41
2022-11-10T04:10:33.840Z,945.31
2022-11-10T04:11:04.766Z,945.31
2022-11-10T04:11:37.022Z,945.41
2022-11-10T04:12:07.007Z,945.41
2022-11-10T04:12:37.800Z,945.41
2022-11-10T04:13:09.027Z,945.51
2022-11-10T04:13:39.828Z,945.51
2022-11-10T04:14:10.839Z,945.41
2022-11-10T04:14:41.685Z,945.41
2022-11-10T04:15:15.653Z,945.51
2022-11-10T04:15:43.913Z,945.51
2022-11-10T04:16:14.678Z,945.51
2022-11-10T04:16:46.784Z,945.51
2022-11-10T04:17:16.707Z,945.51
2022-11-10T04:17:47.954Z,945.51
2022-11-10T04:18:18.888Z,945.41
2022-11-10T04:18:49.714Z,945.41
2022-11-10T04:19:20.899Z,945.51
2022-11-10T04:19:51.951Z,945.51
2022-11-10T04:20:22.857Z,945.51
2022-11-10T04:20:54.131Z,945.51
2022-11-10T04:21:24.815Z,945.61
2022-11-10T04:21:56.791Z,945.61
2022-11-10T04:22:26.748Z,945.82
2022-11-10T04:22:57.880Z,945.82
2022-11-10T04:23:28.618Z,945.71
2022-11-10T04:23:59.761Z,945.71
2022-11-10T04:24:30.696Z,945.51
2022-11-10T04:25:01.797Z,945.51
2022-11-10T04:25:32.913Z,945.61
2022-11-10T04:26:03.951Z,945.61
2022-11-10T04:26:34.748Z,945.61
2022-11-10T04:27:06.919Z,945.61
2022-11-10T04:27:37.102Z,945.41
2022-11-10T04:28:07.758Z,945.41
2022-11-10T04:28:38.927Z,945.51
2022-11-10T04:29:10.011Z,945.82
2022-11-10T04:29:40.910Z,945.82
2022-11-10T04:30:14.549Z,945.82
2022-11-10T04:30:42.802Z,945.82
2022-11-10T04:31:13.787Z,945.82
2022-11-10T04:31:44.623Z,945.82
2022-11-10T04:32:16.803Z,945.82
2022-11-10T04:32:46.816Z,945.82
2022-11-10T04:33:17.851Z,945.71
2022-11-10T04:33:48.940Z,945.71
2022-11-10T04:34:19.799Z,945.61
2022-11-10T04:34:51.090Z,945.61
2022-11-10T04:35:21.806Z,945.71
2022-11-10T04:35:52.747Z,945.71
2022-11-10T04:36:24.095Z,945.61
2022-11-10T04:36:54.947Z,945.61
2022-11-10T04:37:26.666Z,945.61
2022-11-10T04:37:56.583Z,945.61
2022-11-10T04:38:28.040Z,945.71
2022-11-10T04:38:58.757Z,945.71
2022-11-10T04:39:29.861Z,945.61
2022-11-10T04:40:00.951Z,945.61
2022-11-10T04:40:31.778Z,945.61
2022-11-10T04:41:02.989Z,945.61
2022-11-10T04:41:33.991Z,945.82
2022-11-10T04:42:04.902Z,945.82
2022-11-10T04:42:36.799Z,945.71
2022-11-10T04:43:07.080Z,945.71
2022-11-10T04:43:37.790Z,945.71
2022-11-10T04:44:09.145Z,945.71
2022-11-10T04:44:39.874Z,945.71
2022-11-10T04:45:13.661Z,945.82
2022-11-10T04:45:41.659Z,945.82
2022-11-10T04:46:13.016Z,945.82
2022-11-10T04:46:43.975Z,945.82
2022-11-10T04:47:14.704Z,945.71
2022-11-10T04:47:46.790Z,945.71
2022-11-10T04:48:16.770Z,945.82
2022-11-10T04:48:47.782Z,945.82
2022-11-10T04:49:18.828Z,946.12
2022-11-10T04:49:49.752Z,946.12
2022-11-10T04:50:20.990Z,945.71
2022-11-10T04:50:51.866Z,945.71
2022-11-10T04:51:23.163Z,945.71
2022-11-10T04:51:53.787Z,945.71
2022-11-10T04:52:25.042Z,945.61
2022-11-10T04:52:56.702Z,945.61
2022-11-10T04:53:26.841Z,945.82
2022-11-10T04:53:57.985Z,945.82
2022-11-10T04:54:28.788Z,945.82
2022-11-10T04:54:59.706Z,945.82
2022-11-10T04:55:30.659Z,945.51
2022-11-10T04:56:01.861Z,945.51
2022-11-10T04:56:32.933Z,945.61
2022-11-10T04:57:04.063Z,945.61
2022-11-10T04:57:34.808Z,945.71
2022-11-10T05:00:43.763Z,945.61
2022-11-10T05:01:11.884Z,945.82
2022-11-10T05:01:42.963Z,945.82
2022-11-10T05:02:13.715Z,945.61
2022-11-10T05:02:44.849Z,945.61
2022-11-10T05:03:16.691Z,945.82
2022-11-10T05:03:46.709Z,945.82
2022-11-10T05:04:17.841Z,945.71
2022-11-10T05:04:49.001Z,945.71
2022-11-10T05:05:19.852Z,945.92
2022-11-10T05:05:50.925Z,945.92
2022-11-10T05:06:21.987Z,945.92
2022-11-10T05:06:52.986Z,945.92
2022-11-10T05:07:23.909Z,946.02
2022-11-10T05:07:55.011Z,946.02
2022-11-10T05:08:26.827Z,945.92
2022-11-10T05:08:56.838Z,945.92
2022-11-10T05:09:27.898Z,945.92
2022-11-10T05:09:58.875Z,945.92
2022-11-10T05:10:29.866Z,946.02
2022-11-10T05:11:00.827Z,946.02
2022-11-10T05:11:31.698Z,945.92
2022-11-10T05:12:02.850Z,945.92
2022-11-10T05:12:34.125Z,946.12
2022-11-10T05:13:04.858Z,946.12
2022-11-10T05:13:36.815Z,946.02
2022-11-10T05:14:07.095Z,946.02
2022-11-10T05:14:37.966Z,946.22
2022-11-10T05:15:11.601Z,946.02
2022-11-10T05:15:39.743Z,946.02
2022-11-10T05:16:10.657Z,946.32
2022-11-10T05:16:41.759Z,946.32
2022-11-10T05:17:12.975Z,946.22
2022-11-10T05:17:43.899Z,946.22
2022-11-10T05:18:14.709Z,946.22
2022-11-10T05:18:46.811Z,946.22
2022-11-10T05:19:16.795Z,946.22
2022-11-10T05:19:47.918Z,946.22
2022-11-10T05:20:18.880Z,946.22
2022-11-10T05:20:49.965Z,946.22
2022-11-10T05:21:20.863Z,946.12
2022-11-10T05:21:52.067Z,946.12
2022-11-10T05:22:23.044Z,946.12
2022-11-10T05:22:53.742Z,946.12
2022-11-10T05:23:25.138Z,946.43
2022-11-10T05:23:56.806Z,946.43
2022-11-10T05:24:26.876Z,946.22
2022-11-10T05:24:58.007Z,946.22
2022-11-10T05:25:29.081Z,946.12
2022-11-10T05:25:55.133Z,946.12
2022-11-10T05:26:25.836Z,946.32
2022-11-10T05:26:56.907Z,946.32
2022-11-10T05:27:27.671Z,946.43
2022-11-10T05:27:58.749Z,946.43
2022-11-10T05:28:29.770Z,946.32
2022-11-10T05:29:08.911Z,946.32
2022-11-10T05:29:37.106Z,946.43
2022-11-10T05:30:13.754Z,946.43
2022-11-10T05:30:39.118Z,946.22
2022-11-10T05:31:09.946Z,946.32
2022-11-10T05:31:40.863Z,946.32
2022-11-10T05:32:11.790Z,946.43
2022-11-10T05:32:43.048Z,946.43
2022-11-10T05:33:13.861Z,946.32
2022-11-10T05:33:44.700Z,946.32
2022-11-10T05:34:17.091Z,946.32
2022-11-10T05:34:46.883Z,946.32
2022-11-10T05:35:17.944Z,946.32
2022-11-10T05:35:49.148Z,946.32
2022-11-10T05:36:20.178Z,946.43
2022-11-10T05:36:50.831Z,946.43
2022-11-10T05:37:21.997Z,946.32
2022-11-10T05:37:52.884Z,946.32
2022-11-10T05:38:24.099Z,946.12
2022-11-10T05:38:55.014Z,946.12
2022-11-10T05:39:26.723Z,946.43
2022-11-10T05:39:56.838Z,946.43
2022-11-10T05:40:27.984Z,946.32
2022-11-10T05:40:59.004Z,946.32
2022-11-10T05:41:30.021Z,946.43
2022-11-10T05:42:01.027Z,946.43
2022-11-10T05:42:31.868Z,946.53
2022-11-10T05:43:02.986Z,946.53
2022-11-10T05:43:34.111Z,946.53
2022-11-10T05:44:04.851Z,946.53
2022-11-10T05:44:36.975Z,946.43
2022-11-10T05:45:09.731Z,946.43
2022-11-10T05:45:38.007Z,946.73
2022-11-10T05:46:09.169Z,946.73
2022-11-10T05:46:39.958Z,946.73
2022-11-10T05:47:10.875Z,946.63
2022-11-10T05:47:41.883Z,946.63
2022-11-10T05:48:13.118Z,946.63
2022-11-10T05:48:43.981Z,946.63
2022-11-10T05:49:14.890Z,946.53
2022-11-10T05:49:46.999Z,946.53
2022-11-10T05:50:16.919Z,946.63
2022-11-10T05:50:47.816Z,946.63
2022-11-10T05:51:18.771Z,946.63
2022-11-10T05:51:49.968Z,946.63
2022-11-10T05:52:20.854Z,946.63
2022-11-10T05:52:51.980Z,946.63
2022-11-10T05:53:23.464Z,946.53
2022-11-10T05:53:53.950Z,946.53
2022-11-10T05:54:24.936Z,946.43
2022-11-10T05:54:56.927Z,946.43
2022-11-10T05:55:26.844Z,946.43
2022-11-10T05:55:58.022Z,946.43
2022-11-10T05:56:28.890Z,946.53
2022-11-10T05:56:59.872Z,946.53
2022-11-10T05:57:30.908Z,946.53
2022-11-10T05:58:02.005Z,946.53
2022-11-10T05:58:32.801Z,946.63
2022-11-10T05:59:04.054Z,946.63
2022-11-10T05:59:34.888Z,946.63
2022-11-10T06:00:09.830Z,946.63
2022-11-10T06:00:36.962Z,946.53
2022-11-10T06:01:07.806Z,946.53
2022-11-10T06:01:38.980Z,946.73
2022-11-10T06:02:09.857Z,946.93
2022-11-10T06:02:40.850Z,946.93
2022-11-10T06:03:11.739Z,946.73
2022-11-10T06:03:43.084Z,946.73
2022-11-10T06:04:13.944Z,946.73
2022-11-10T06:04:45.035Z,946.73
2022-11-10T06:05:16.886Z,946.73
2022-11-10T06:05:46.900Z,946.73
2022-11-10T06:06:17.814Z,946.63
2022-11-10T06:06:49.119Z,946.63
2022-11-10T06:07:20.085Z,946.73
2022-11-10T06:07:50.967Z,946.73
2022-11-10T06:08:21.784Z,946.83
2022-11-10T06:08:52.900Z,946.83
2022-11-10T06:09:24.013Z,946.63
2022-11-10T06:09:54.707Z,946.63
2022-11-10T06:10:26.828Z,946.93
2022-11-10T06:10:56.860Z,946.93
2022-11-10T06:11:28.020Z,946.83
2022-11-10T06:11:59.013Z,946.83
2022-11-10T06:12:29.980Z,946.73
2022-11-10T06:13:01.069Z,946.73
2022-11-10T06:13:31.960Z,946.93
2022-11-10T06:14:02.997Z,946.93
2022-11-10T06:14:34.130Z,946.83
2022-11-10T06:15:07.475Z,946.83
2022-11-10T06:15:36.994Z,946.73
2022-11-10T06:16:06.953Z,946.73
2022-11-10T06:16:38.052Z,946.63
2022-11-10T06:17:09.180Z,946.73
2022-11-10T06:17:39.909Z,946.73
2022-11-10T06:18:10.902Z,946.73
2022-11-10T06:18:41.958Z,946.73
2022-11-10T06:19:12.980Z,946.63
2022-11-10T06:19:43.904Z,946.63
2022-11-10T06:20:14.953Z,946.83
2022-11-10T06:20:46.977Z,946.83
2022-11-10T06:21:17.066Z,946.93
2022-11-10T06:21:48.226Z,946.93
2022-11-10T06:22:19.127Z,946.83
2022-11-10T06:22:50.337Z,946.83
2022-11-10T06:23:21.541Z,946.93
2022-11-10T06:23:52.167Z,946.93
2022-11-10T06:24:23.108Z,946.73
2022-11-10T06:24:54.005Z,946.73
2022-11-10T06:25:24.995Z,946.93
2022-11-10T06:25:57.092Z,946.93
2022-11-10T06:26:27.206Z,946.83
2022-11-10T06:26:58.105Z,946.83
2022-11-10T06:27:29.305Z,946.93
2022-11-10T06:28:00.299Z,946.93
2022-11-10T06:28:31.347Z,946.93
2022-11-10T06:29:02.265Z,946.93
2022-11-10T06:29:33.203Z,947.04
2022-11-10T06:30:07.048Z,947.04